Time;durP1;ratioP1;P1;durP2;ratioP2;P2;SDS_P1;SDS_P2;PMS_P1;PMS_P2;Temp;Humidity;BMP_temperature;BMP_pressure;BME280_temperature;BME280_humidity;BME280_pressure;Samples;Min_cycle;Max_cycle;Signal;HPM_P1;HPM_P2
2023/12/20 00:02:18;;;;;;;;;;;8.50;99.90;;;;;;5001839;28;20002;-67
2023/12/20 00:04:44;;;;;;;;;;;8.50;99.90;;;;;;5000663;28;19921;-67
2023/12/20 00:07:09;;;;;;;;;;;8.40;99.90;;;;;;5001925;28;20352;-67
2023/12/20 00:09:34;;;;;;;;;;;8.30;99.90;;;;;;4998458;28;19921;-66
2023/12/20 00:12:00;;;;;;;;;;;8.40;99.90;;;;;;4978430;28;20012;-66
2023/12/20 00:14:28;;;;;;;;;;;8.30;99.90;;;;;;5000327;28;19928;-66
2023/12/20 00:16:56;;;;;;;;;;;8.30;99.90;;;;;;4998628;28;20002;-66
2023/12/20 00:19:23;;;;;;;;;;;8.40;99.90;;;;;;5001369;28;19921;-66
2023/12/20 00:21:49;;;;;;;;;;;8.30;99.90;;;;;;5003064;28;19971;-66
2023/12/20 00:24:14;;;;;;;;;;;8.30;99.90;;;;;;5003217;28;19921;-66
2023/12/20 00:26:40;;;;;;;;;;;8.30;99.90;;;;;;5000252;28;19944;-66
2023/12/20 00:29:05;;;;;;;;;;;8.30;99.90;;;;;;4999516;28;20376;-66
2023/12/20 00:31:31;;;;;;;;;;;8.20;99.90;;;;;;5002047;28;19917;-66
2023/12/20 00:33:56;;;;;;;;;;;8.20;99.90;;;;;;5000273;28;19917;-66
2023/12/20 00:36:24;;;;;;;;;;;8.20;99.90;;;;;;5001002;28;20436;-66
2023/12/20 00:38:51;;;;;;;;;;;8.20;99.90;;;;;;5000188;28;21747;-66
2023/12/20 00:41:16;;;;;;;;;;;8.10;99.90;;;;;;5004233;28;20327;-66
2023/12/20 00:43:42;;;;;;;;;;;8.10;99.90;;;;;;4999961;28;20099;-66
2023/12/20 00:46:07;;;;;;;;;;;8.10;99.90;;;;;;4999038;28;19917;-66
2023/12/20 00:48:33;;;;;;;;;;;8.10;99.90;;;;;;5039960;22;20149;-66
2023/12/20 00:51:01;;;;;;;;;;;8.00;99.90;;;;;;5025932;28;19932;-66
2023/12/20 00:53:26;;;;;;;;;;;8.00;99.90;;;;;;5004525;28;19971;-66
2023/12/20 00:55:52;;;;;;;;;;;8.00;99.90;;;;;;4997576;28;20450;-66
2023/12/20 00:58:20;;;;;;;;;;;8.00;99.90;;;;;;4998933;28;19924;-66
2023/12/20 01:00:45;;;;;;;;;;;8.00;99.90;;;;;;4996923;28;20383;-66
2023/12/20 01:03:10;;;;;;;;;;;8.00;99.90;;;;;;4999523;28;19970;-66
2023/12/20 01:05:36;;;;;;;;;;;8.00;99.90;;;;;;4997829;28;19921;-66
2023/12/20 01:08:02;;;;;;;;;;;7.90;99.90;;;;;;5001034;28;19921;-66
2023/12/20 01:10:29;;;;;;;;;;;7.90;99.90;;;;;;5001103;28;19921;-66
2023/12/20 01:12:54;;;;;;;;;;;8.00;99.90;;;;;;5000091;28;19921;-66
2023/12/20 01:15:20;;;;;;;;;;;8.00;99.90;;;;;;4998117;28;20604;-66
2023/12/20 01:17:49;;;;;;;;;;;7.90;99.90;;;;;;4998882;28;20366;-66
2023/12/20 01:20:14;;;;;;;;;;;8.00;99.90;;;;;;4996645;28;19921;-66
2023/12/20 01:22:40;;;;;;;;;;;7.90;99.90;;;;;;5000994;28;20179;-66
2023/12/20 01:25:08;;;;;;;;;;;7.90;99.90;;;;;;4996890;28;19921;-66
2023/12/20 01:27:36;;;;;;;;;;;7.90;99.90;;;;;;4999777;28;20029;-66
2023/12/20 01:30:01;;;;;;;;;;;7.90;99.90;;;;;;4999292;28;19924;-66
2023/12/20 01:32:27;;;;;;;;;;;7.90;99.90;;;;;;5000365;28;20151;-66
2023/12/20 01:34:52;;;;;;;;;;;7.80;99.90;;;;;;4998411;28;21961;-66
2023/12/20 01:37:18;;;;;;;;;;;7.80;99.90;;;;;;4999641;28;20615;-66
2023/12/20 01:39:43;;;;;;;;;;;7.80;99.90;;;;;;4996912;28;19921;-66
2023/12/20 01:42:09;;;;;;;;;;;7.80;99.90;;;;;;5002744;28;20314;-66
2023/12/20 01:44:34;;;;;;;;;;;7.80;99.90;;;;;;4995872;28;19928;-66
2023/12/20 01:47:00;;;;;;;;;;;7.80;99.90;;;;;;4998508;28;20171;-66
2023/12/20 01:49:25;;;;;;;;;;;7.80;99.90;;;;;;4996732;28;20368;-66
2023/12/20 01:51:54;;;;;;;;;;;7.70;99.90;;;;;;5000296;28;20452;-66
2023/12/20 01:54:24;;;;;;;;;;;7.80;99.90;;;;;;4997076;28;19921;-66
2023/12/20 01:56:50;;;;;;;;;;;7.70;99.90;;;;;;4999333;28;19979;-66
2023/12/20 01:59:16;;;;;;;;;;;7.70;99.90;;;;;;4978535;28;19917;-66
2023/12/20 02:01:42;;;;;;;;;;;7.70;99.90;;;;;;4998504;28;20438;-66
2023/12/20 02:04:07;;;;;;;;;;;7.70;99.90;;;;;;4997223;28;19929;-66
2023/12/20 02:06:33;;;;;;;;;;;7.70;99.90;;;;;;5000058;28;20125;-66
2023/12/20 02:08:59;;;;;;;;;;;7.60;99.90;;;;;;4996751;28;20361;-66
2023/12/20 02:11:27;;;;;;;;;;;7.60;99.90;;;;;;4998811;28;20009;-66
2023/12/20 02:13:53;;;;;;;;;;;7.60;99.90;;;;;;4997057;28;19928;-66
2023/12/20 02:16:20;;;;;;;;;;;7.60;99.90;;;;;;4998732;28;20297;-66
2023/12/20 02:18:46;;;;;;;;;;;7.60;99.90;;;;;;4997280;28;19921;-66
2023/12/20 02:21:14;;;;;;;;;;;7.50;99.90;;;;;;4997574;28;20012;-66
2023/12/20 02:23:41;;;;;;;;;;;7.50;99.90;;;;;;4997332;28;19928;-66
2023/12/20 02:26:07;;;;;;;;;;;7.50;99.90;;;;;;5000230;28;20426;-66
2023/12/20 02:28:33;;;;;;;;;;;7.50;99.90;;;;;;4999410;28;19969;-66
2023/12/20 02:30:58;;;;;;;;;;;7.50;99.90;;;;;;4998466;28;19968;-66
2023/12/20 02:33:26;;;;;;;;;;;7.50;99.90;;;;;;5000016;28;20187;-66
2023/12/20 02:35:52;;;;;;;;;;;7.50;99.90;;;;;;4997519;28;19917;-66
2023/12/20 02:38:18;;;;;;;;;;;7.50;99.90;;;;;;5000686;28;21076;-66
2023/12/20 02:40:45;;;;;;;;;;;7.50;99.90;;;;;;4996953;28;19921;-66
2023/12/20 02:43:11;;;;;;;;;;;7.50;99.90;;;;;;4997670;28;19956;-66
2023/12/20 02:45:36;;;;;;;;;;;7.50;99.90;;;;;;4994868;28;19921;-66
2023/12/20 02:48:04;;;;;;;;;;;7.50;99.90;;;;;;4999014;28;19959;-66
2023/12/20 02:50:30;;;;;;;;;;;7.40;99.90;;;;;;4998240;28;19923;-66
2023/12/20 02:52:55;;;;;;;;;;;7.40;99.90;;;;;;4998491;28;19921;-66
2023/12/20 02:55:21;;;;;;;;;;;7.40;99.90;;;;;;4997141;28;19921;-66
2023/12/20 02:57:46;;;;;;;;;;;7.40;99.90;;;;;;4998864;28;19921;-66
2023/12/20 03:00:12;;;;;;;;;;;7.40;99.90;;;;;;4995639;28;20006;-66
2023/12/20 03:02:37;;;;;;;;;;;7.40;99.90;;;;;;4999007;28;20410;-66
2023/12/20 03:05:05;;;;;;;;;;;7.40;99.90;;;;;;4997199;28;19921;-66
2023/12/20 03:07:30;;;;;;;;;;;7.40;99.90;;;;;;4997247;28;20620;-66
2023/12/20 03:09:58;;;;;;;;;;;7.40;99.90;;;;;;4996140;28;19917;-66
2023/12/20 03:12:24;;;;;;;;;;;7.30;99.90;;;;;;4978871;28;20571;-64
2023/12/20 03:14:49;;;;;;;;;;;7.30;99.90;;;;;;4996522;28;19927;-64
2023/12/20 03:17:15;;;;;;;;;;;7.30;99.90;;;;;;4996240;28;20477;-64
2023/12/20 03:19:40;;;;;;;;;;;7.30;99.90;;;;;;4993632;28;19960;-64
2023/12/20 03:22:06;;;;;;;;;;;7.30;99.90;;;;;;4999704;28;20302;-64
2023/12/20 03:24:34;;;;;;;;;;;7.20;99.90;;;;;;4997166;28;19945;-64
2023/12/20 03:27:01;;;;;;;;;;;7.20;99.90;;;;;;4996362;28;19925;-64
2023/12/20 03:29:27;;;;;;;;;;;7.20;99.90;;;;;;4993451;28;19952;-64
2023/12/20 03:31:55;;;;;;;;;;;7.20;99.90;;;;;;4997462;28;20356;-64
2023/12/20 03:34:22;;;;;;;;;;;7.20;99.90;;;;;;4999848;28;20096;-64
2023/12/20 03:36:50;;;;;;;;;;;7.20;99.90;;;;;;5001624;28;19928;-64
2023/12/20 03:39:18;;;;;;;;;;;7.30;99.90;;;;;;4994375;28;19971;-64
2023/12/20 03:41:43;;;;;;;;;;;7.30;99.90;;;;;;4997967;28;19955;-64
2023/12/20 03:44:09;;;;;;;;;;;7.30;99.90;;;;;;4995191;28;20280;-64
2023/12/20 03:46:37;;;;;;;;;;;7.20;99.90;;;;;;4996653;28;19961;-67
2023/12/20 03:49:02;;;;;;;;;;;7.20;99.90;;;;;;5002041;28;20166;-66
2023/12/20 03:51:28;;;;;;;;;;;7.20;99.90;;;;;;4997534;28;20005;-66
2023/12/20 03:53:53;;;;;;;;;;;7.30;99.90;;;;;;4994976;28;20871;-66
2023/12/20 03:56:18;;;;;;;;;;;7.20;99.90;;;;;;4997544;28;19928;-66
2023/12/20 03:58:44;;;;;;;;;;;7.20;99.90;;;;;;4993823;28;21057;-66
2023/12/20 04:01:15;;;;;;;;;;;7.20;99.90;;;;;;4997416;28;20007;-66
2023/12/20 04:03:41;;;;;;;;;;;7.20;99.90;;;;;;4994940;28;19921;-66
2023/12/20 04:06:06;;;;;;;;;;;7.20;99.90;;;;;;4995137;28;20123;-66
2023/12/20 04:08:36;;;;;;;;;;;7.20;99.90;;;;;;4996574;28;19967;-66
2023/12/20 04:11:02;;;;;;;;;;;7.20;99.90;;;;;;4997081;28;22392;-66
2023/12/20 04:13:27;;;;;;;;;;;7.20;99.90;;;;;;4997442;28;20374;-66
2023/12/20 04:15:53;;;;;;;;;;;7.30;99.90;;;;;;4994749;28;19921;-66
2023/12/20 04:18:18;;;;;;;;;;;7.30;99.90;;;;;;4998859;28;20014;-66
2023/12/20 04:20:46;;;;;;;;;;;7.20;99.90;;;;;;4997164;28;19951;-66
2023/12/20 04:23:12;;;;;;;;;;;7.20;99.90;;;;;;4999386;28;19929;-66
2023/12/20 04:25:39;;;;;;;;;;;7.20;99.90;;;;;;4996079;28;19921;-66
2023/12/20 04:28:07;;;;;;;;;;;7.20;99.90;;;;;;4997438;28;21245;-66
2023/12/20 04:30:33;;;;;;;;;;;7.20;99.90;;;;;;4997219;28;20011;-66
2023/12/20 04:33:00;;;;;;;;;;;7.20;99.90;;;;;;4997166;28;20055;-66
2023/12/20 04:35:28;;;;;;;;;;;7.20;99.90;;;;;;4998972;28;19921;-66
2023/12/20 04:37:54;;;;;;;;;;;7.20;99.90;;;;;;5001194;28;19959;-66
2023/12/20 04:40:21;;;;;;;;;;;7.20;99.90;;;;;;5001816;28;20357;-66
2023/12/20 04:42:47;;;;;;;;;;;7.20;99.90;;;;;;5002722;28;19925;-66
2023/12/20 04:45:15;;;;;;;;;;;7.30;99.90;;;;;;4997135;28;19921;-66
2023/12/20 04:47:41;;;;;;;;;;;7.30;99.90;;;;;;5001875;28;22089;-66
2023/12/20 04:50:10;;;;;;;;;;;7.30;99.90;;;;;;5005828;28;19921;-66
2023/12/20 04:52:38;;;;;;;;;;;7.30;99.90;;;;;;5001874;28;20572;-66
2023/12/20 04:55:04;;;;;;;;;;;7.30;99.90;;;;;;5003642;28;20755;-66
2023/12/20 04:57:29;;;;;;;;;;;7.30;99.90;;;;;;5001612;28;19917;-66
2023/12/20 04:59:55;;;;;;;;;;;7.30;99.90;;;;;;4998367;28;20070;-66
2023/12/20 05:02:20;;;;;;;;;;;7.30;99.90;;;;;;5004533;28;20379;-66
2023/12/20 05:04:46;;;;;;;;;;;7.30;99.90;;;;;;4998423;28;19975;-66
2023/12/20 05:07:13;;;;;;;;;;;7.30;99.90;;;;;;5003894;28;20265;-66
2023/12/20 05:09:39;;;;;;;;;;;7.30;99.90;;;;;;4998876;28;19921;-66
2023/12/20 05:12:09;;;;;;;;;;;7.30;99.90;;;;;;5001545;28;19956;-66
2023/12/20 05:14:35;;;;;;;;;;;7.30;99.90;;;;;;4999724;28;20688;-66
2023/12/20 05:17:03;;;;;;;;;;;7.30;99.90;;;;;;5000780;28;20066;-66
2023/12/20 05:19:28;;;;;;;;;;;7.30;99.90;;;;;;4997256;28;19929;-66
2023/12/20 05:21:54;;;;;;;;;;;7.30;99.90;;;;;;5000029;28;19967;-66
2023/12/20 05:24:22;;;;;;;;;;;7.40;99.90;;;;;;4995472;28;20317;-66
2023/12/20 05:26:47;;;;;;;;;;;7.30;99.90;;;;;;4999120;28;20477;-66
2023/12/20 05:29:15;;;;;;;;;;;7.30;99.90;;;;;;4995698;28;20051;-66
2023/12/20 05:31:43;;;;;;;;;;;7.40;99.90;;;;;;4999080;28;19917;-66
2023/12/20 05:34:08;;;;;;;;;;;7.40;99.90;;;;;;5000829;28;19948;-66
2023/12/20 05:36:36;;;;;;;;;;;7.40;99.90;;;;;;4997400;28;20283;-66
2023/12/20 05:39:04;;;;;;;;;;;7.40;99.90;;;;;;4999179;28;19920;-66
2023/12/20 05:41:32;;;;;;;;;;;7.30;99.90;;;;;;4990178;28;20791;-66
2023/12/20 05:43:57;;;;;;;;;;;7.40;99.90;;;;;;4987432;28;20319;-66
2023/12/20 05:46:23;;;;;;;;;;;7.40;99.90;;;;;;4978336;28;19967;-66
2023/12/20 05:48:49;;;;;;;;;;;7.40;99.90;;;;;;4995973;28;20402;-66
2023/12/20 05:51:17;;;;;;;;;;;7.40;99.90;;;;;;4995593;28;21055;-66
2023/12/20 05:53:49;;;;;;;;;;;7.30;99.90;;;;;;4994523;28;20256;-66
2023/12/20 05:56:15;;;;;;;;;;;7.40;99.90;;;;;;4998958;28;19928;-66
2023/12/20 05:58:40;;;;;;;;;;;7.30;99.90;;;;;;4995104;28;19916;-66
2023/12/20 06:01:08;;;;;;;;;;;7.40;99.90;;;;;;4988036;28;19922;-66
2023/12/20 06:03:36;;;;;;;;;;;7.40;99.90;;;;;;4994679;28;19917;-66
2023/12/20 06:06:06;;;;;;;;;;;7.50;99.90;;;;;;4998452;28;19921;-66
2023/12/20 06:08:32;;;;;;;;;;;7.40;99.90;;;;;;4996290;28;19925;-66
2023/12/20 06:11:00;;;;;;;;;;;7.40;99.90;;;;;;4992533;28;19928;-66
2023/12/20 06:13:25;;;;;;;;;;;7.40;99.90;;;;;;4975259;28;19927;-66
2023/12/20 06:15:53;;;;;;;;;;;7.40;99.90;;;;;;4997665;28;19921;-66
2023/12/20 06:18:18;;;;;;;;;;;7.40;99.90;;;;;;4996924;28;20536;-66
2023/12/20 06:20:44;;;;;;;;;;;7.40;99.90;;;;;;4986085;28;19921;-66
2023/12/20 06:23:09;;;;;;;;;;;7.40;99.90;;;;;;4997298;28;19921;-66
2023/12/20 06:25:35;;;;;;;;;;;7.40;99.90;;;;;;4979529;28;19921;-66
2023/12/20 06:28:05;;;;;;;;;;;7.40;99.90;;;;;;4993796;28;19925;-66
2023/12/20 06:30:32;;;;;;;;;;;7.40;99.90;;;;;;4989153;28;19925;-66
2023/12/20 06:32:58;;;;;;;;;;;7.40;99.90;;;;;;4998062;28;19921;-66
2023/12/20 06:35:24;;;;;;;;;;;7.40;99.90;;;;;;5001298;28;20545;-66
2023/12/20 06:37:49;;;;;;;;;;;7.40;99.90;;;;;;4997603;28;19921;-66
2023/12/20 06:40:15;;;;;;;;;;;7.40;99.90;;;;;;4995908;28;19921;-66
2023/12/20 06:42:41;;;;;;;;;;;7.40;99.90;;;;;;4999031;28;19932;-66
2023/12/20 06:45:07;;;;;;;;;;;7.40;99.90;;;;;;5003737;28;19921;-66
2023/12/20 06:47:32;;;;;;;;;;;7.40;99.90;;;;;;5026326;22;20310;-66
2023/12/20 06:49:58;;;;;;;;;;;7.30;99.90;;;;;;5019795;28;20563;-66
2023/12/20 06:52:23;;;;;;;;;;;7.40;99.90;;;;;;5022008;28;19922;-66
2023/12/20 06:54:49;;;;;;;;;;;7.30;99.90;;;;;;5017074;28;20751;-66
2023/12/20 06:57:14;;;;;;;;;;;7.40;99.90;;;;;;5018815;28;19929;-66
2023/12/20 06:59:40;;;;;;;;;;;7.40;99.90;;;;;;5016167;28;20418;-66
2023/12/20 07:02:06;;;;;;;;;;;7.30;99.90;;;;;;5016787;28;19952;-66
2023/12/20 07:04:34;;;;;;;;;;;7.30;99.90;;;;;;5019413;28;20007;-66
2023/12/20 07:07:00;;;;;;;;;;;7.30;99.90;;;;;;5014580;28;19932;-66
2023/12/20 07:09:29;;;;;;;;;;;7.30;99.90;;;;;;5010970;28;21630;-66
2023/12/20 07:11:54;;;;;;;;;;;7.30;99.90;;;;;;5014709;28;19923;-66
2023/12/20 07:14:20;;;;;;;;;;;7.30;99.90;;;;;;5013176;28;19921;-66
2023/12/20 07:16:45;;;;;;;;;;;7.20;99.90;;;;;;5008498;28;19963;-66
2023/12/20 07:19:11;;;;;;;;;;;7.30;99.90;;;;;;5004643;28;20040;-66
2023/12/20 07:21:36;;;;;;;;;;;7.30;99.90;;;;;;5004827;28;19968;-66
2023/12/20 07:24:04;;;;;;;;;;;7.20;99.90;;;;;;5004619;28;20339;-66
2023/12/20 07:26:29;;;;;;;;;;;7.20;99.90;;;;;;5015881;28;20417;-66
2023/12/20 07:28:55;;;;;;;;;;;7.20;99.90;;;;;;5013880;28;19948;-66
2023/12/20 07:31:20;;;;;;;;;;;7.30;99.90;;;;;;5016955;28;19952;-66
2023/12/20 07:33:46;;;;;;;;;;;7.20;99.90;;;;;;5012024;28;19921;-66
2023/12/20 07:36:12;;;;;;;;;;;7.30;99.90;;;;;;5007517;28;19975;-66
2023/12/20 07:38:37;;;;;;;;;;;7.30;99.90;;;;;;5011137;28;19943;-66
2023/12/20 07:41:03;;;;;;;;;;;7.30;99.90;;;;;;5008457;28;20423;-66
2023/12/20 07:43:28;;;;;;;;;;;7.30;99.90;;;;;;5008443;28;19924;-66
2023/12/20 07:45:56;;;;;;;;;;;7.30;99.90;;;;;;5007451;28;19916;-66
2023/12/20 07:48:24;;;;;;;;;;;7.30;99.90;;;;;;5015256;28;20004;-66
2023/12/20 07:50:50;;;;;;;;;;;7.40;99.90;;;;;;5014275;28;19967;-66
2023/12/20 07:53:15;;;;;;;;;;;7.30;99.90;;;;;;5013956;28;20494;-66
2023/12/20 07:55:43;;;;;;;;;;;7.30;99.90;;;;;;5012531;28;20690;-66
2023/12/20 07:58:09;;;;;;;;;;;7.30;99.90;;;;;;5013897;28;20003;-66
2023/12/20 08:00:34;;;;;;;;;;;7.30;99.90;;;;;;5012200;28;19916;-67
2023/12/20 08:03:03;;;;;;;;;;;7.20;99.90;;;;;;5016718;28;20417;-66
2023/12/20 08:05:28;;;;;;;;;;;7.20;99.90;;;;;;5013891;28;20880;-66
2023/12/20 08:07:54;;;;;;;;;;;7.20;99.90;;;;;;5013002;28;20009;-66
2023/12/20 08:10:19;;;;;;;;;;;7.20;99.90;;;;;;5013902;28;19920;-66
2023/12/20 08:12:45;;;;;;;;;;;7.20;99.90;;;;;;5016609;28;20754;-66
2023/12/20 08:15:13;;;;;;;;;;;7.20;99.90;;;;;;5014521;28;19956;-67
2023/12/20 08:17:38;;;;;;;;;;;7.30;99.90;;;;;;5019317;28;20288;-66
2023/12/20 08:20:04;;;;;;;;;;;7.30;99.90;;;;;;5018205;28;20466;-66
2023/12/20 08:22:30;;;;;;;;;;;7.30;99.90;;;;;;5020437;28;19921;-66
2023/12/20 08:24:57;;;;;;;;;;;7.40;99.90;;;;;;5019521;28;19920;-66
2023/12/20 08:27:23;;;;;;;;;;;7.30;99.90;;;;;;5021626;28;19921;-66
2023/12/20 08:29:49;;;;;;;;;;;7.40;99.90;;;;;;5016503;28;20600;-66
2023/12/20 08:32:15;;;;;;;;;;;7.30;99.90;;;;;;5017076;28;19921;-66
2023/12/20 08:34:43;;;;;;;;;;;7.40;99.90;;;;;;5022512;28;19917;-66
2023/12/20 08:37:10;;;;;;;;;;;7.40;99.90;;;;;;5015820;28;20556;-66
2023/12/20 08:39:36;;;;;;;;;;;7.40;99.90;;;;;;5014563;28;19968;-66
2023/12/20 08:42:04;;;;;;;;;;;7.40;99.90;;;;;;5035213;28;20000;-66
2023/12/20 08:44:29;;;;;;;;;;;7.50;99.90;;;;;;5017513;28;19975;-66
2023/12/20 08:46:57;;;;;;;;;;;7.50;99.90;;;;;;5018695;28;22996;-66
2023/12/20 08:49:22;;;;;;;;;;;7.50;99.90;;;;;;5017264;28;20375;-66
2023/12/20 08:51:48;;;;;;;;;;;7.50;99.90;;;;;;5017731;28;20005;-66
2023/12/20 08:54:13;;;;;;;;;;;7.60;99.90;;;;;;5014741;28;20379;-66
2023/12/20 08:56:39;;;;;;;;;;;7.60;99.90;;;;;;5017173;28;19929;-66
2023/12/20 08:59:07;;;;;;;;;;;7.60;99.90;;;;;;5015780;28;19928;-66
2023/12/20 09:01:32;;;;;;;;;;;7.60;99.90;;;;;;5018292;28;19921;-66
2023/12/20 09:03:57;;;;;;;;;;;7.60;99.90;;;;;;5015244;28;19928;-66
2023/12/20 09:06:25;;;;;;;;;;;7.70;99.90;;;;;;5018996;28;19929;-67
2023/12/20 09:08:51;;;;;;;;;;;7.70;99.90;;;;;;5016608;28;20329;-66
2023/12/20 09:11:17;;;;;;;;;;;7.80;99.90;;;;;;5018265;28;19952;-66
2023/12/20 09:13:44;;;;;;;;;;;7.70;99.90;;;;;;5015545;28;21544;-66
2023/12/20 09:16:09;;;;;;;;;;;7.70;99.90;;;;;;5016272;28;20282;-66
2023/12/20 09:18:37;;;;;;;;;;;7.80;99.90;;;;;;5016191;28;19921;-66
2023/12/20 09:21:05;;;;;;;;;;;7.80;99.90;;;;;;5018278;28;20283;-66
2023/12/20 09:23:31;;;;;;;;;;;7.80;99.90;;;;;;5018055;28;19928;-66
2023/12/20 09:25:56;;;;;;;;;;;7.80;99.90;;;;;;5014361;28;19920;-66
2023/12/20 09:28:22;;;;;;;;;;;7.80;99.90;;;;;;5016346;28;19971;-66
2023/12/20 09:30:50;;;;;;;;;;;7.80;99.90;;;;;;5016180;28;20445;-66
2023/12/20 09:33:16;;;;;;;;;;;7.80;99.90;;;;;;5016668;28;19921;-66
2023/12/20 09:35:41;;;;;;;;;;;7.80;99.90;;;;;;5026191;28;20279;-66
2023/12/20 09:38:09;;;;;;;;;;;7.70;99.90;;;;;;5037710;28;21268;-66
2023/12/20 09:40:36;;;;;;;;;;;7.80;99.90;;;;;;5018944;28;20828;-66
2023/12/20 09:43:08;;;;;;;;;;;7.80;99.90;;;;;;5018255;28;20350;-66
2023/12/20 09:45:34;;;;;;;;;;;7.80;99.90;;;;;;5015451;28;19921;-66
2023/12/20 09:48:00;;;;;;;;;;;7.80;99.90;;;;;;5016413;28;21594;-66
2023/12/20 09:50:25;;;;;;;;;;;7.80;99.90;;;;;;5017937;28;19924;-66
2023/12/20 09:52:51;;;;;;;;;;;7.80;99.90;;;;;;5015697;28;20011;-66
2023/12/20 09:55:18;;;;;;;;;;;7.90;99.90;;;;;;5014005;28;20054;-66
2023/12/20 09:57:44;;;;;;;;;;;7.90;99.90;;;;;;5016566;28;19924;-66
2023/12/20 10:00:12;;;;;;;;;;;7.90;99.90;;;;;;5015498;28;19939;-66
2023/12/20 10:02:58;;;;;;;;;;;7.90;99.90;;;;;;5016761;28;20387;-67
2023/12/20 10:05:30;;;;;;;;;;;8.00;99.90;;;;;;5013982;28;19921;-66
2023/12/20 10:07:56;;;;;;;;;;;8.00;99.90;;;;;;5012102;28;20467;-66
2023/12/20 10:10:24;;;;;;;;;;;8.00;99.90;;;;;;5014610;28;19956;-66
2023/12/20 10:13:06;;;;;;;;;;;8.00;99.90;;;;;;5016070;28;19920;-66
2023/12/20 10:15:35;;;;;;;;;;;8.00;99.90;;;;;;5013380;28;20234;-66
2023/12/20 10:18:01;;;;;;;;;;;8.00;99.90;;;;;;5016545;28;19921;-66
2023/12/20 10:20:28;;;;;;;;;;;8.10;99.90;;;;;;5014312;28;19921;-66
2023/12/20 10:22:54;;;;;;;;;;;8.10;99.90;;;;;;5016654;28;19920;-66
2023/12/20 10:25:20;;;;;;;;;;;8.10;99.90;;;;;;5024301;28;19938;-66
2023/12/20 10:27:48;;;;;;;;;;;8.10;99.90;;;;;;5017418;28;20583;-66
2023/12/20 10:30:14;;;;;;;;;;;8.20;99.90;;;;;;5013724;28;19932;-66
2023/12/20 10:32:40;;;;;;;;;;;8.20;99.90;;;;;;5012736;28;19921;-66
2023/12/20 10:35:06;;;;;;;;;;;8.20;99.90;;;;;;5014293;28;19983;-66
2023/12/20 10:37:35;;;;;;;;;;;8.20;99.90;;;;;;5016759;28;19981;-66
2023/12/20 10:40:02;;;;;;;;;;;8.20;99.90;;;;;;5013592;28;19943;-66
2023/12/20 10:42:28;;;;;;;;;;;8.20;99.90;;;;;;5017084;28;20248;-66
2023/12/20 10:44:56;;;;;;;;;;;8.20;99.90;;;;;;5018349;28;20035;-66
2023/12/20 10:47:22;;;;;;;;;;;8.20;99.90;;;;;;5020685;28;19925;-66
2023/12/20 10:49:48;;;;;;;;;;;8.20;99.90;;;;;;5017897;28;19994;-66
2023/12/20 10:52:13;;;;;;;;;;;8.10;99.90;;;;;;5011999;28;19917;-66
2023/12/20 10:54:42;;;;;;;;;;;8.10;99.90;;;;;;5016195;28;19925;-66
2023/12/20 10:57:08;;;;;;;;;;;8.10;99.90;;;;;;5016163;28;19948;-66
2023/12/20 10:59:35;;;;;;;;;;;8.10;99.90;;;;;;5013248;28;20355;-66
2023/12/20 11:02:05;;;;;;;;;;;8.10;99.90;;;;;;5015800;28;19921;-66
2023/12/20 11:04:36;;;;;;;;;;;8.20;99.90;;;;;;5014930;28;20361;-66
2023/12/20 11:07:11;;;;;;;;;;;8.20;99.90;;;;;;5016976;28;20155;-66
2023/12/20 11:09:38;;;;;;;;;;;8.20;99.90;;;;;;5015208;28;20079;-66
2023/12/20 11:12:09;;;;;;;;;;;8.20;99.90;;;;;;5018144;28;20674;-66
2023/12/20 11:14:42;;;;;;;;;;;8.20;99.90;;;;;;5014833;28;19921;-66
2023/12/20 11:17:13;;;;;;;;;;;8.20;99.90;;;;;;5015020;28;19923;-67
2023/12/20 11:19:57;;;;;;;;;;;8.20;99.90;;;;;;5020664;28;20044;-66
2023/12/20 11:22:27;;;;;;;;;;;8.10;99.90;;;;;;5015299;28;19920;-66
2023/12/20 11:24:53;;;;;;;;;;;8.00;99.90;;;;;;5014094;28;19948;-66
2023/12/20 11:27:19;;;;;;;;;;;8.00;99.90;;;;;;5045978;28;20498;-67
2023/12/20 11:29:52;;;;;;;;;;;8.00;99.90;;;;;;5013366;28;19932;-66
2023/12/20 11:32:23;;;;;;;;;;;8.00;99.90;;;;;;5015211;28;19931;-66
2023/12/20 11:34:53;;;;;;;;;;;8.00;99.90;;;;;;5013620;28;19917;-66
2023/12/20 11:37:22;;;;;;;;;;;8.00;99.90;;;;;;5016228;28;19921;-66
2023/12/20 11:39:54;;;;;;;;;;;7.90;99.90;;;;;;5012195;28;19923;-67
2023/12/20 11:42:20;;;;;;;;;;;7.90;99.90;;;;;;5014265;28;20757;-67
2023/12/20 11:44:46;;;;;;;;;;;7.90;99.90;;;;;;5014644;28;19920;-67
2023/12/20 11:47:12;;;;;;;;;;;7.80;99.90;;;;;;5020665;28;19924;-67
2023/12/20 11:49:38;;;;;;;;;;;7.80;99.90;;;;;;5020284;28;19921;-67
2023/12/20 11:52:03;;;;;;;;;;;7.60;99.90;;;;;;5034606;22;19932;-64
2023/12/20 11:54:30;;;;;;;;;;;7.60;99.90;;;;;;5021442;28;20651;-64
2023/12/20 11:56:55;;;;;;;;;;;7.40;99.90;;;;;;5023599;28;20314;-64
2023/12/20 11:59:21;;;;;;;;;;;7.40;99.90;;;;;;5019986;28;19917;-64
2023/12/20 12:01:52;;;;;;;;;;;7.40;99.90;;;;;;5021276;28;19966;-64
2023/12/20 12:04:18;;;;;;;;;;;7.30;99.90;;;;;;5020516;28;20007;-64
2023/12/20 12:06:44;;;;;;;;;;;7.20;99.90;;;;;;5023975;28;19925;-64
2023/12/20 12:09:10;;;;;;;;;;;7.20;99.90;;;;;;5021229;28;19991;-64
2023/12/20 12:11:37;;;;;;;;;;;7.20;99.90;;;;;;5021108;28;20062;-64
2023/12/20 12:14:03;;;;;;;;;;;7.10;99.90;;;;;;5019717;28;20238;-64
2023/12/20 12:16:31;;;;;;;;;;;7.10;99.90;;;;;;5021614;28;20337;-64
2023/12/20 12:19:00;;;;;;;;;;;7.10;99.90;;;;;;5020557;28;20260;-64
2023/12/20 12:21:26;;;;;;;;;;;7.00;99.90;;;;;;5021066;28;20438;-64
2023/12/20 12:23:53;;;;;;;;;;;7.10;99.90;;;;;;5020017;28;21725;-64
2023/12/20 12:26:19;;;;;;;;;;;7.00;99.90;;;;;;5033451;28;19967;-64
2023/12/20 12:28:47;;;;;;;;;;;7.00;99.90;;;;;;5022015;28;20047;-67
2023/12/20 12:31:14;;;;;;;;;;;7.00;99.90;;;;;;5020214;28;19947;-67
2023/12/20 12:33:40;;;;;;;;;;;7.00;99.90;;;;;;5019680;28;19921;-67
2023/12/20 12:36:09;;;;;;;;;;;7.00;99.90;;;;;;5022468;28;20410;-67
2023/12/20 12:38:36;;;;;;;;;;;6.90;99.90;;;;;;5022590;28;19920;-67
2023/12/20 12:41:02;;;;;;;;;;;6.90;99.90;;;;;;5035415;28;20371;-67
2023/12/20 12:43:28;;;;;;;;;;;6.90;99.90;;;;;;5022914;28;19920;-67
2023/12/20 12:45:53;;;;;;;;;;;7.00;99.90;;;;;;5019803;28;19925;-67
2023/12/20 12:48:22;;;;;;;;;;;7.00;99.90;;;;;;5013652;23;20017;-66
2023/12/20 12:50:47;;;;;;;;;;;7.00;99.90;;;;;;4999827;28;20163;-67
2023/12/20 12:53:15;;;;;;;;;;;7.10;99.90;;;;;;5015724;28;22292;-67
2023/12/20 12:55:41;;;;;;;;;;;7.10;99.90;;;;;;4998543;28;20509;-67
2023/12/20 12:58:06;;;;;;;;;;;7.00;99.90;;;;;;4999852;28;19928;-67
2023/12/20 13:00:32;;;;;;;;;;;7.00;99.90;;;;;;4999434;28;19917;-67
2023/12/20 13:02:57;;;;;;;;;;;7.00;99.90;;;;;;4999270;28;19928;-67
2023/12/20 13:05:25;;;;;;;;;;;7.10;99.90;;;;;;4999679;28;20290;-67
2023/12/20 13:07:51;;;;;;;;;;;7.00;99.90;;;;;;5000671;28;20093;-67
2023/12/20 13:10:17;;;;;;;;;;;7.00;99.90;;;;;;4999030;28;19921;-67
2023/12/20 13:12:43;;;;;;;;;;;7.00;99.90;;;;;;4999370;28;20043;-67
2023/12/20 13:15:09;;;;;;;;;;;7.10;99.90;;;;;;4999057;28;19925;-67
2023/12/20 13:17:34;;;;;;;;;;;7.00;99.90;;;;;;5002188;28;20431;-67
2023/12/20 13:20:00;;;;;;;;;;;7.00;99.90;;;;;;4999235;28;19921;-67
2023/12/20 13:22:28;;;;;;;;;;;6.90;99.90;;;;;;5001602;28;20475;-67
2023/12/20 13:24:53;;;;;;;;;;;6.90;99.90;;;;;;4999396;28;20279;-67
2023/12/20 13:27:21;;;;;;;;;;;6.90;99.90;;;;;;4999252;28;19965;-67
2023/12/20 13:29:49;;;;;;;;;;;7.00;99.90;;;;;;4998021;28;19990;-67
2023/12/20 13:32:18;;;;;;;;;;;6.90;99.90;;;;;;4999180;28;19921;-67
2023/12/20 13:34:44;;;;;;;;;;;6.90;99.90;;;;;;4998097;28;22310;-67
2023/12/20 13:37:09;;;;;;;;;;;7.00;99.90;;;;;;5000149;28;20379;-67
2023/12/20 13:39:37;;;;;;;;;;;7.00;99.90;;;;;;4997989;28;19928;-67
2023/12/20 13:42:05;;;;;;;;;;;7.00;99.90;;;;;;4999415;28;20031;-67
2023/12/20 13:44:30;;;;;;;;;;;7.00;99.90;;;;;;4996589;28;20577;-67
2023/12/20 13:46:56;;;;;;;;;;;7.00;99.90;;;;;;4999120;28;20598;-67
2023/12/20 13:49:25;;;;;;;;;;;7.10;99.90;;;;;;4996781;28;19932;-67
2023/12/20 13:51:51;;;;;;;;;;;7.10;99.90;;;;;;5000067;28;19967;-67
2023/12/20 13:54:19;;;;;;;;;;;7.10;99.90;;;;;;4998896;28;19917;-67
2023/12/20 13:56:47;;;;;;;;;;;7.20;99.90;;;;;;5000437;28;20392;-67
2023/12/20 13:59:13;;;;;;;;;;;7.30;99.90;;;;;;4997737;28;19917;-67
2023/12/20 14:01:41;;;;;;;;;;;7.20;99.90;;;;;;5002083;28;19921;-67
2023/12/20 14:04:07;;;;;;;;;;;7.20;99.90;;;;;;4998046;28;19921;-67
2023/12/20 14:06:33;;;;;;;;;;;7.20;99.90;;;;;;4997634;28;19920;-67
2023/12/20 14:09:02;;;;;;;;;;;7.20;99.90;;;;;;4998071;28;20647;-67
2023/12/20 14:11:27;;;;;;;;;;;7.20;99.90;;;;;;4999229;28;19921;-67
2023/12/20 14:13:57;;;;;;;;;;;7.30;99.90;;;;;;4990618;28;20358;-67
2023/12/20 14:16:23;;;;;;;;;;;7.30;99.90;;;;;;4991993;28;19978;-67
2023/12/20 14:18:51;;;;;;;;;;;7.30;99.90;;;;;;4998020;28;19971;-67
2023/12/20 14:21:17;;;;;;;;;;;7.30;99.90;;;;;;5001067;28;19944;-67
2023/12/20 14:23:43;;;;;;;;;;;7.30;99.90;;;;;;4997970;28;20364;-67
2023/12/20 14:26:14;;;;;;;;;;;7.30;99.90;;;;;;4997785;28;19932;-67
2023/12/20 14:28:44;;;;;;;;;;;7.30;99.90;;;;;;4998140;28;19925;-67